Monteagle, TN (37356)

5:06 PM CST on February 10, 2016 (GMT -0600)
Blackberry | | Change Station
CLOSE
Current Station
Personal Weather Station
Location: Monteagle, TN
Elevation: 1923 ft
Nearby Weather Stations

Elev 1923 ft 35.22 °N, 85.83 °W | Updated 3 seconds ago

Clear
Clear
24.9 °F
Feels Like 25 °F
N
2.0
Wind Variable Wind from WNW
Gusts 5.0 mph

Today
High -- | Low -- °F
--% Chance of Precip.
Yesterday
High -- | Low -- °F
Precip. -- in
Pressure 30.13 in
Visibility 10.0 miles
Clouds Few 3200 ft
Scattered Clouds 4000 ft
Overcast 4500 ft
Windchill 25 °F
Dew Point 13 °F
Humidity 61%
Rainfall 0.00 in
Snow Depth Not available.
6:35 AM 5:20 PM
Waxing Crescent, 7% visible
METAR KBGF 102255Z AUTO 25009KT 10SM FEW032 SCT040 OVC045 M02/M13 A3013 RMK
Pressure 30.13 in
Visibility 10.0 miles
Clouds Few 3200 ft
Scattered Clouds 4000 ft
Overcast 4500 ft
Windchill 25 °F
Dew Point 13 °F
Humidity 61%
Rainfall 0.00 in
Snow Depth Not available.
6:35 AM 5:20 PM
Waxing Crescent, 7% visible
METAR KBGF 102255Z AUTO 25009KT 10SM FEW032 SCT040 OVC045 M02/M13 A3013 RMK

10-Day Weather Forecast

Almanac

Astronomy

Feb. 10, 2016 Rise Set
Actual Time
Civil Twilight
Nautical Twilight
Astronomical Twilight
Moon
Length of Visible Light
Length of Day
Tomorrow will be .
, % of the Moon is Illuminated

Today's Extremes

State Highs State Lows

Community

WunderPhotos

Upload Photos

1,891,933 photos uploaded!

WunderBlog® & News

Nearby

Air Quality

  Air Quality AQ Index Pollutant
Not available.

Snow Depth

Station Depth Elevation

Earthquake Activity

City Distance Mag. Time & Date
Minimum magnitude displayed is 2.5.

Coastal Water Temperatures

Place Temperature

Stations

Nearby Weather Stations

Station Location Temp. Windchill Dew Point Humidity Wind Precip. Elev Updated Type
                   

Watches & Warnings

There are currently no watches in effect.